Terminal Aerodrome Forecast
Issued by NWS Memphis, TN

Home | Current Version | Previous Version | Text Only | Print | Product List | Glossary On
Versions: 1 2 3 4 5 6 7 8 9 10 11 12 13 14
222
FTUS44 KMEG 300526
TAFMKL
TAF
KMKL 300526Z 3006/0106 15006KT P6SM VCSH SCT060 BKN100
      TEMPO 3012/3015 3SM TSRA BR BKN015CB
     FM301500 19012G20KT P6SM VCTS BKN025CB OVC040
     FM302000 19015G25KT P6SM SCT050 BKN150
     FM010200 16009KT P6SM VCTS SCT050CB BKN250=

USA.gov is the U.S. government's official web portal to all federal, state and local government web resources and services.